createdAt,value
2019-05-26T00:01:35.900Z,13.10
2019-05-26T00:04:04.375Z,13.10
2019-05-26T00:06:32.820Z,13.00
2019-05-26T00:09:01.225Z,13.00
2019-05-26T00:11:29.641Z,13.10
2019-05-26T00:13:58.058Z,13.10
2019-05-26T00:16:45.889Z,13.10
2019-05-26T00:19:14.309Z,13.10
2019-05-26T00:21:42.752Z,13.20
2019-05-26T00:24:11.157Z,13.20
2019-05-26T00:26:39.586Z,13.20
2019-05-26T00:29:07.998Z,13.20
2019-05-26T00:31:36.435Z,13.20
2019-05-26T00:34:04.848Z,13.20
2019-05-26T00:36:33.240Z,13.30
2019-05-26T00:39:01.655Z,13.30
2019-05-26T00:41:30.068Z,13.30
2019-05-26T00:43:58.466Z,13.40
2019-05-26T00:46:26.857Z,13.40
2019-05-26T00:48:55.241Z,13.50
2019-05-26T00:51:23.664Z,13.50
2019-05-26T00:53:52.067Z,13.50
2019-05-26T00:56:20.464Z,13.40
2019-05-26T00:58:48.903Z,13.40
2019-05-26T01:01:17.305Z,13.30
2019-05-26T01:03:45.779Z,13.30
2019-05-26T01:06:14.190Z,13.30
2019-05-26T01:08:42.765Z,13.30
2019-05-26T01:11:11.180Z,13.30
2019-05-26T01:13:39.868Z,13.30
2019-05-26T01:16:08.280Z,13.30
2019-05-26T01:18:36.675Z,13.30
2019-05-26T01:21:05.092Z,13.20
2019-05-26T01:23:33.622Z,13.30
2019-05-26T01:26:02.038Z,13.20
2019-05-26T01:28:30.444Z,13.20
2019-05-26T01:30:58.844Z,13.20
2019-05-26T01:33:27.281Z,13.20
2019-05-26T01:35:55.707Z,13.20
2019-05-26T01:38:24.710Z,13.20
2019-05-26T01:40:53.252Z,13.20
2019-05-26T01:43:21.651Z,13.20
2019-05-26T01:45:50.087Z,13.20
2019-05-26T01:48:18.566Z,13.20
2019-05-26T01:50:47.036Z,13.20
2019-05-26T01:53:15.466Z,13.30
2019-05-26T01:55:43.841Z,13.30
2019-05-26T01:58:12.741Z,13.20
2019-05-26T02:00:41.631Z,13.30
2019-05-26T02:03:10.067Z,13.30
2019-05-26T02:05:38.479Z,13.30
2019-05-26T02:08:06.912Z,13.30
2019-05-26T02:10:35.332Z,13.40
2019-05-26T02:13:03.732Z,13.40
2019-05-26T02:15:32.144Z,13.40
2019-05-26T02:18:00.646Z,13.40
2019-05-26T02:20:29.175Z,13.40
2019-05-26T02:22:57.557Z,13.40
2019-05-26T02:25:26.628Z,13.50
2019-05-26T02:27:55.066Z,13.40
2019-05-26T02:30:23.484Z,13.50
2019-05-26T02:32:51.960Z,13.50
2019-05-26T02:35:20.561Z,13.40
2019-05-26T02:37:48.950Z,13.50
2019-05-26T02:40:17.365Z,13.40
2019-05-26T02:42:45.794Z,13.50
2019-05-26T02:45:15.039Z,13.60
2019-05-26T02:47:44.294Z,13.70
2019-05-26T02:50:12.709Z,13.70
2019-05-26T02:52:41.140Z,13.70
2019-05-26T02:55:09.631Z,13.60
2019-05-26T02:57:40.085Z,13.60
2019-05-26T03:00:09.231Z,13.60
2019-05-26T03:02:37.659Z,13.60
2019-05-26T03:05:10.744Z,13.60
2019-05-26T03:07:43.686Z,13.60
2019-05-26T03:10:13.204Z,13.60
2019-05-26T03:12:41.995Z,13.60
2019-05-26T03:15:10.789Z,13.50
2019-05-26T03:17:39.195Z,13.60
2019-05-26T03:20:07.697Z,13.70
2019-05-26T03:22:36.141Z,13.70
2019-05-26T03:25:04.595Z,13.80
2019-05-26T03:27:33.031Z,13.80
2019-05-26T03:30:01.448Z,13.80
2019-05-26T03:32:29.853Z,13.90
2019-05-26T03:34:58.258Z,13.90
2019-05-26T03:37:26.687Z,14.00
2019-05-26T03:39:55.097Z,14.00
2019-05-26T03:42:23.525Z,14.00
2019-05-26T03:44:51.892Z,14.00
2019-05-26T03:47:20.342Z,14.10
2019-05-26T03:49:48.774Z,14.10
2019-05-26T03:52:17.208Z,14.10
2019-05-26T03:54:45.711Z,14.20
2019-05-26T03:57:15.140Z,14.20
2019-05-26T03:59:43.609Z,14.20
2019-05-26T04:02:11.951Z,14.30
2019-05-26T04:04:40.375Z,14.30
2019-05-26T04:07:08.750Z,14.30
2019-05-26T04:09:37.163Z,14.30
2019-05-26T04:12:05.576Z,14.30
2019-05-26T04:14:33.998Z,14.30
2019-05-26T04:17:02.512Z,14.40
2019-05-26T04:19:30.913Z,14.40
2019-05-26T04:21:59.340Z,14.40
2019-05-26T04:24:27.726Z,14.50
2019-05-26T04:26:56.166Z,14.50
2019-05-26T04:29:24.634Z,14.50
2019-05-26T04:31:53.062Z,14.50
2019-05-26T04:34:21.474Z,14.50
2019-05-26T04:36:49.952Z,14.50
2019-05-26T04:39:18.386Z,14.50
2019-05-26T04:41:47.083Z,14.50
2019-05-26T04:44:15.707Z,14.50
2019-05-26T04:47:03.513Z,14.60
2019-05-26T04:49:36.881Z,14.60
2019-05-26T04:52:01.936Z,14.70
2019-05-26T04:54:30.357Z,14.80
2019-05-26T04:56:58.766Z,14.80
2019-05-26T04:59:27.199Z,14.90
2019-05-26T05:01:55.621Z,15.00
2019-05-26T05:04:24.075Z,15.00
2019-05-26T05:06:52.513Z,15.00
2019-05-26T05:09:20.937Z,15.00
2019-05-26T05:11:49.344Z,15.00
2019-05-26T05:14:17.795Z,15.00
2019-05-26T05:16:46.237Z,15.00
2019-05-26T05:19:14.600Z,15.00
2019-05-26T05:21:43.024Z,15.10
2019-05-26T05:24:11.412Z,15.10
2019-05-26T05:26:40.859Z,15.20
2019-05-26T05:29:09.207Z,15.20
2019-05-26T05:31:37.691Z,15.30
2019-05-26T05:34:06.102Z,15.30
2019-05-26T05:36:34.649Z,15.40
2019-05-26T05:39:03.200Z,15.50
2019-05-26T05:41:31.646Z,15.50
2019-05-26T05:44:00.052Z,15.70
2019-05-26T05:46:28.468Z,15.70
2019-05-26T05:48:56.893Z,15.80
2019-05-26T05:51:25.303Z,15.80
2019-05-26T05:53:53.722Z,15.80
2019-05-26T05:56:22.115Z,15.80
2019-05-26T05:58:50.530Z,15.70
2019-05-26T06:01:18.939Z,15.70
2019-05-26T06:03:47.377Z,15.70
2019-05-26T06:06:15.802Z,15.70
2019-05-26T06:08:44.193Z,15.80
2019-05-26T06:11:16.364Z,15.80
2019-05-26T06:13:42.764Z,15.90
2019-05-26T06:16:11.180Z,16.10
2019-05-26T06:18:39.579Z,16.20
2019-05-26T06:21:08.000Z,16.30
2019-05-26T06:23:37.165Z,16.60
2019-05-26T06:26:05.847Z,16.70
2019-05-26T06:28:34.253Z,16.90
2019-05-26T06:31:02.716Z,17.00
2019-05-26T06:33:31.160Z,17.20
2019-05-26T06:35:59.536Z,17.40
2019-05-26T06:38:27.956Z,17.50
2019-05-26T06:40:56.358Z,17.60
2019-05-26T06:43:24.776Z,17.70
2019-05-26T06:45:53.175Z,17.80
2019-05-26T06:48:21.592Z,17.90
2019-05-26T06:50:50.014Z,18.00
2019-05-26T06:53:18.436Z,17.90
2019-05-26T06:55:47.168Z,18.10
2019-05-26T06:58:15.659Z,18.20
2019-05-26T07:00:44.144Z,18.20
2019-05-26T07:03:12.558Z,18.30
2019-05-26T07:05:40.931Z,18.30
2019-05-26T07:08:09.403Z,18.40
2019-05-26T07:10:37.804Z,18.50
2019-05-26T07:13:06.216Z,18.50
2019-05-26T07:15:34.608Z,18.60
2019-05-26T07:18:03.017Z,18.50
2019-05-26T07:20:31.412Z,18.70
2019-05-26T07:22:59.827Z,18.90
2019-05-26T07:25:28.247Z,19.10
2019-05-26T07:27:56.622Z,19.10
2019-05-26T07:30:25.040Z,19.20
2019-05-26T07:32:53.432Z,19.30
2019-05-26T07:35:21.842Z,19.30
2019-05-26T07:37:50.234Z,19.40
2019-05-26T07:40:18.664Z,19.50
2019-05-26T07:42:47.047Z,19.50
2019-05-26T07:45:15.502Z,19.60
2019-05-26T07:47:43.897Z,19.60
2019-05-26T07:50:12.292Z,19.80
2019-05-26T07:52:40.707Z,19.90
2019-05-26T07:55:09.096Z,20.00
2019-05-26T07:57:37.511Z,20.10
2019-05-26T08:00:07.547Z,20.20
2019-05-26T08:02:35.967Z,20.40
2019-05-26T08:05:06.216Z,20.40
2019-05-26T08:07:34.632Z,20.50
2019-05-26T08:10:03.320Z,20.50
2019-05-26T08:12:31.711Z,20.70
2019-05-26T08:15:00.226Z,20.80
2019-05-26T08:17:28.627Z,21.00
2019-05-26T08:19:57.032Z,21.20
2019-05-26T08:22:25.416Z,21.40
2019-05-26T08:24:53.861Z,21.50
2019-05-26T08:27:22.240Z,21.70
2019-05-26T08:29:50.648Z,21.90
2019-05-26T08:32:19.060Z,22.00
2019-05-26T08:34:47.472Z,21.90
2019-05-26T08:37:17.848Z,21.90
2019-05-26T08:39:48.565Z,21.90
2019-05-26T08:42:26.791Z,22.00
2019-05-26T08:44:47.886Z,22.10
2019-05-26T08:47:16.366Z,22.30
2019-05-26T08:49:44.777Z,22.40
2019-05-26T08:52:13.322Z,22.50
2019-05-26T08:54:41.721Z,22.50
2019-05-26T08:57:10.147Z,22.50
2019-05-26T08:59:38.557Z,22.60
2019-05-26T09:02:06.958Z,22.60
2019-05-26T09:04:35.382Z,22.60
2019-05-26T09:07:03.768Z,22.60
2019-05-26T09:09:32.185Z,22.50
2019-05-26T09:12:00.604Z,22.40
2019-05-26T09:14:28.983Z,22.30
2019-05-26T09:16:57.387Z,22.30
2019-05-26T09:19:25.781Z,22.50
2019-05-26T09:21:54.191Z,22.70
2019-05-26T09:24:22.614Z,22.80
2019-05-26T09:26:51.033Z,23.00
2019-05-26T09:29:19.435Z,23.00
2019-05-26T09:31:47.877Z,23.00
2019-05-26T09:34:16.267Z,23.10
2019-05-26T09:36:44.656Z,23.30
2019-05-26T09:39:13.074Z,23.20
2019-05-26T09:41:41.748Z,23.10
2019-05-26T09:44:10.131Z,23.20
2019-05-26T09:46:38.572Z,23.40
2019-05-26T09:49:07.067Z,23.50
2019-05-26T09:51:35.524Z,23.60
2019-05-26T09:54:03.923Z,23.70
2019-05-26T09:56:32.335Z,23.60
2019-05-26T09:59:00.736Z,23.70
2019-05-26T10:01:29.135Z,23.70
2019-05-26T10:03:57.536Z,23.70
2019-05-26T10:06:25.954Z,23.80
2019-05-26T10:08:54.344Z,23.80
2019-05-26T10:11:22.753Z,23.70
2019-05-26T10:13:51.135Z,23.70
2019-05-26T10:16:19.547Z,23.60
2019-05-26T10:18:47.931Z,23.70
2019-05-26T10:21:16.306Z,23.90
2019-05-26T10:23:44.713Z,23.90
2019-05-26T10:26:13.104Z,23.70
2019-05-26T10:28:41.515Z,23.60
2019-05-26T10:31:09.905Z,23.60
2019-05-26T10:33:38.346Z,23.70
2019-05-26T10:36:06.861Z,23.70
2019-05-26T10:38:35.439Z,23.70
2019-05-26T10:41:03.837Z,23.70
2019-05-26T10:43:46.220Z,23.70
2019-05-26T10:46:02.368Z,23.80
2019-05-26T10:48:30.768Z,23.70
2019-05-26T10:50:59.158Z,23.80
2019-05-26T10:53:27.606Z,23.80
2019-05-26T10:55:56.283Z,23.80
2019-05-26T10:58:24.676Z,23.70
2019-05-26T11:00:53.160Z,23.70
2019-05-26T11:03:21.517Z,23.60
2019-05-26T11:05:49.939Z,23.50
2019-05-26T11:08:18.366Z,23.50
2019-05-26T11:10:46.767Z,23.40
2019-05-26T11:13:15.196Z,23.50
2019-05-26T11:15:45.156Z,23.70
2019-05-26T11:18:13.648Z,23.70
2019-05-26T11:20:42.995Z,23.80
2019-05-26T11:23:13.162Z,23.80
2019-05-26T11:25:42.381Z,23.80
2019-05-26T11:28:10.802Z,24.00
2019-05-26T11:30:39.294Z,24.00
2019-05-26T11:33:07.826Z,24.10
2019-05-26T11:35:36.210Z,24.20
2019-05-26T11:38:04.944Z,24.30
2019-05-26T11:40:33.347Z,24.30
2019-05-26T11:43:15.651Z,24.30
2019-05-26T11:45:31.901Z,24.10
2019-05-26T11:48:00.323Z,23.80
2019-05-26T11:50:28.718Z,23.70
2019-05-26T11:52:57.089Z,23.70
2019-05-26T11:55:27.792Z,23.70
2019-05-26T11:57:55.531Z,23.80
2019-05-26T12:00:23.962Z,23.80
2019-05-26T12:02:52.315Z,23.90
2019-05-26T12:05:20.722Z,24.10
2019-05-26T12:07:49.107Z,24.20
2019-05-26T12:10:17.524Z,24.20
2019-05-26T12:12:45.936Z,24.40
2019-05-26T12:15:14.412Z,24.50
2019-05-26T12:17:42.848Z,24.50
2019-05-26T12:20:11.269Z,24.60
2019-05-26T12:22:39.677Z,24.60
2019-05-26T12:25:08.170Z,24.50
2019-05-26T12:27:36.581Z,24.50
2019-05-26T12:30:08.359Z,24.40
2019-05-26T12:32:36.755Z,24.40
2019-05-26T12:35:10.009Z,24.40
2019-05-26T12:37:38.477Z,24.40
2019-05-26T12:40:07.523Z,24.40
2019-05-26T12:42:35.955Z,24.40
2019-05-26T12:45:06.083Z,24.30
2019-05-26T12:47:35.447Z,24.40
2019-05-26T12:50:08.178Z,24.40
2019-05-26T12:52:36.569Z,24.30
2019-05-26T12:55:09.237Z,24.20
2019-05-26T12:57:36.766Z,24.20
2019-05-26T13:00:08.471Z,24.20
2019-05-26T13:02:36.870Z,24.10
2019-05-26T13:05:06.925Z,24.00
2019-05-26T13:07:35.321Z,24.00
2019-05-26T13:10:06.268Z,24.00
2019-05-26T13:12:34.676Z,24.00
2019-05-26T13:15:06.274Z,24.00
2019-05-26T13:17:33.113Z,24.00
2019-05-26T13:20:01.492Z,23.90
2019-05-26T13:22:29.912Z,24.00
2019-05-26T13:24:58.298Z,24.00
2019-05-26T13:27:26.795Z,23.90
2019-05-26T13:29:55.203Z,23.90
2019-05-26T13:32:23.630Z,24.00
2019-05-26T13:34:52.012Z,24.10
2019-05-26T13:37:21.341Z,24.30
2019-05-26T13:39:49.748Z,24.40
2019-05-26T13:42:18.123Z,24.60
2019-05-26T13:44:46.544Z,24.60
2019-05-26T13:47:25.733Z,24.70
2019-05-26T13:49:44.981Z,24.60
2019-05-26T13:52:13.404Z,24.40
2019-05-26T13:54:41.812Z,24.70
2019-05-26T13:57:10.225Z,24.60
2019-05-26T13:59:38.623Z,24.50
2019-05-26T14:02:07.019Z,24.40
2019-05-26T14:04:35.419Z,24.40
2019-05-26T14:07:03.840Z,24.40
2019-05-26T14:09:32.267Z,24.30
2019-05-26T14:12:00.678Z,24.20
2019-05-26T14:14:29.234Z,24.20
2019-05-26T14:16:58.007Z,24.10
2019-05-26T14:19:27.792Z,24.10
2019-05-26T14:21:56.188Z,24.10
2019-05-26T14:24:24.578Z,24.10
2019-05-26T14:26:52.964Z,23.90
2019-05-26T14:29:21.372Z,23.80
2019-05-26T14:31:52.705Z,23.80
2019-05-26T14:34:19.811Z,23.80
2019-05-26T14:36:48.288Z,23.80
2019-05-26T14:39:16.679Z,23.70
2019-05-26T14:41:45.151Z,23.60
2019-05-26T14:44:13.478Z,23.70
2019-05-26T14:46:41.868Z,23.80
2019-05-26T14:49:10.246Z,23.80
2019-05-26T14:51:38.672Z,23.80
2019-05-26T14:54:07.047Z,23.70
2019-05-26T14:56:35.438Z,23.60
2019-05-26T14:59:03.854Z,23.60
2019-05-26T15:01:32.252Z,23.60
2019-05-26T15:04:00.657Z,23.60
2019-05-26T15:06:29.036Z,23.40
2019-05-26T15:08:57.457Z,23.40
2019-05-26T15:11:25.799Z,23.50
2019-05-26T15:13:54.167Z,23.60
2019-05-26T15:16:22.548Z,23.40
2019-05-26T15:18:50.964Z,23.20
2019-05-26T15:21:19.341Z,23.00
2019-05-26T15:23:47.749Z,23.00
2019-05-26T15:26:16.134Z,23.30
2019-05-26T15:28:44.516Z,23.60
2019-05-26T15:31:12.946Z,23.80
2019-05-26T15:33:41.334Z,23.80
2019-05-26T15:36:09.726Z,23.50
2019-05-26T15:38:42.797Z,23.60
2019-05-26T15:41:08.225Z,23.80
2019-05-26T15:43:36.616Z,24.00
2019-05-26T15:46:05.043Z,24.10
2019-05-26T15:48:33.468Z,24.30
2019-05-26T15:51:01.889Z,24.40
2019-05-26T15:53:30.241Z,24.50
2019-05-26T15:55:58.638Z,24.60
2019-05-26T15:58:27.042Z,24.50
2019-05-26T16:00:55.420Z,24.40
2019-05-26T16:03:23.855Z,24.20
2019-05-26T16:05:52.239Z,24.00
2019-05-26T16:08:21.764Z,23.80
2019-05-26T16:10:50.173Z,23.60
2019-05-26T16:13:18.676Z,23.50
2019-05-26T16:15:47.180Z,23.30
2019-05-26T16:18:15.590Z,23.00
2019-05-26T16:20:43.986Z,22.80
2019-05-26T16:23:12.359Z,22.60
2019-05-26T16:25:40.840Z,22.40
2019-05-26T16:28:09.306Z,22.30
2019-05-26T16:30:37.711Z,22.20
2019-05-26T16:33:06.120Z,22.20
2019-05-26T16:35:34.531Z,22.20
2019-05-26T16:38:02.936Z,22.20
2019-05-26T16:40:31.322Z,22.00
2019-05-26T16:42:59.742Z,21.80
2019-05-26T16:45:28.165Z,21.70
2019-05-26T16:47:56.650Z,21.70
2019-05-26T16:50:25.175Z,21.70
2019-05-26T16:52:54.717Z,21.70
2019-05-26T16:55:23.367Z,21.70
2019-05-26T16:57:51.795Z,21.70
2019-05-26T17:00:20.331Z,21.70
2019-05-26T17:02:48.728Z,21.70
2019-05-26T17:05:17.203Z,21.70
2019-05-26T17:07:45.789Z,21.60
2019-05-26T17:10:14.194Z,21.50
2019-05-26T17:12:42.589Z,21.40
2019-05-26T17:15:10.974Z,21.20
2019-05-26T17:17:39.377Z,21.10
2019-05-26T17:20:08.056Z,21.00
2019-05-26T17:22:36.557Z,20.80
2019-05-26T17:25:05.684Z,20.60
2019-05-26T17:27:34.102Z,20.40
2019-05-26T17:30:02.614Z,20.30
2019-05-26T17:32:31.120Z,20.10
2019-05-26T17:34:59.528Z,19.90
2019-05-26T17:37:27.907Z,19.80
2019-05-26T17:39:56.335Z,19.70
2019-05-26T17:42:24.708Z,19.70
2019-05-26T17:44:53.140Z,19.60
2019-05-26T17:47:29.982Z,19.60
2019-05-26T17:49:51.668Z,19.60
2019-05-26T17:52:20.058Z,19.60
2019-05-26T17:54:48.464Z,19.50
2019-05-26T17:57:16.845Z,19.40
2019-05-26T17:59:45.235Z,19.40
2019-05-26T18:02:13.649Z,19.30
2019-05-26T18:04:42.074Z,19.30
2019-05-26T18:07:10.476Z,19.20
2019-05-26T18:09:44.263Z,19.20
2019-05-26T18:12:08.983Z,19.20
2019-05-26T18:14:37.393Z,19.10
2019-05-26T18:17:05.801Z,19.10
2019-05-26T18:19:34.185Z,19.00
2019-05-26T18:22:02.627Z,19.10
2019-05-26T18:24:31.013Z,19.00
2019-05-26T18:26:59.512Z,18.90
2019-05-26T18:29:27.977Z,18.80
2019-05-26T18:31:56.521Z,18.70
2019-05-26T18:34:25.270Z,18.50
2019-05-26T18:36:53.765Z,18.50
2019-05-26T18:39:22.221Z,18.30
2019-05-26T18:41:50.688Z,18.20
2019-05-26T18:44:19.158Z,17.90
2019-05-26T18:46:47.584Z,17.70
2019-05-26T18:49:16.037Z,17.60
2019-05-26T18:51:44.444Z,17.50
2019-05-26T18:54:12.837Z,17.40
2019-05-26T18:56:41.265Z,17.30
2019-05-26T18:59:09.666Z,17.20
2019-05-26T19:01:38.076Z,17.20
2019-05-26T19:04:06.689Z,17.10
2019-05-26T19:06:35.181Z,17.20
2019-05-26T19:09:05.366Z,17.20
2019-05-26T19:11:38.100Z,17.20
2019-05-26T19:14:06.573Z,17.20
2019-05-26T19:16:35.023Z,17.10
2019-05-26T19:19:03.569Z,17.10
2019-05-26T19:21:31.971Z,17.00
2019-05-26T19:24:00.376Z,16.80
2019-05-26T19:26:28.780Z,16.70
2019-05-26T19:28:57.166Z,16.60
2019-05-26T19:31:25.704Z,16.50
2019-05-26T19:33:54.085Z,16.40
2019-05-26T19:36:22.511Z,16.50
2019-05-26T19:38:50.964Z,16.40
2019-05-26T19:41:19.398Z,16.40
2019-05-26T19:43:47.781Z,16.30
2019-05-26T19:46:16.232Z,16.30
2019-05-26T19:48:44.733Z,16.20
2019-05-26T19:51:13.131Z,16.10
2019-05-26T19:53:41.550Z,16.10
2019-05-26T19:56:09.960Z,16.00
2019-05-26T19:58:38.405Z,16.00
2019-05-26T20:01:06.827Z,15.90
2019-05-26T20:03:35.209Z,15.90
2019-05-26T20:06:03.661Z,15.90
2019-05-26T20:08:32.119Z,15.80
2019-05-26T20:11:00.524Z,15.80
2019-05-26T20:13:28.937Z,15.80
2019-05-26T20:15:57.395Z,15.70
2019-05-26T20:18:25.854Z,15.80
2019-05-26T20:20:54.248Z,15.80
2019-05-26T20:23:22.645Z,15.80
2019-05-26T20:25:51.059Z,15.80
2019-05-26T20:28:21.142Z,15.70
2019-05-26T20:30:49.615Z,15.80
2019-05-26T20:33:18.106Z,15.70
2019-05-26T20:35:46.541Z,15.70
2019-05-26T20:38:14.920Z,15.70
2019-05-26T20:40:43.630Z,15.70
2019-05-26T20:43:11.990Z,15.70
2019-05-26T20:45:40.396Z,15.70
2019-05-26T20:48:08.787Z,15.70
2019-05-26T20:50:37.224Z,15.80
2019-05-26T20:53:05.617Z,15.70
2019-05-26T20:55:34.050Z,15.70
2019-05-26T20:58:02.453Z,15.70
2019-05-26T21:00:30.820Z,15.70
2019-05-26T21:02:59.261Z,15.70
2019-05-26T21:05:27.644Z,15.60
2019-05-26T21:07:56.191Z,15.60
2019-05-26T21:10:24.510Z,15.70
2019-05-26T21:12:52.941Z,15.70
2019-05-26T21:15:21.451Z,15.70
2019-05-26T21:17:49.940Z,15.80
2019-05-26T21:20:19.221Z,15.80
2019-05-26T21:22:47.656Z,15.80
2019-05-26T21:25:16.144Z,15.70
2019-05-26T21:27:44.520Z,15.80
2019-05-26T21:30:12.927Z,15.80
2019-05-26T21:32:41.352Z,15.70
2019-05-26T21:35:09.803Z,15.70
2019-05-26T21:37:38.180Z,15.70
2019-05-26T21:40:08.103Z,15.70
2019-05-26T21:42:36.500Z,15.70
2019-05-26T21:45:06.438Z,15.70
2019-05-26T21:47:34.862Z,15.70
2019-05-26T21:50:03.254Z,15.70
2019-05-26T21:52:31.750Z,15.70
2019-05-26T21:55:00.200Z,15.70
2019-05-26T21:57:28.636Z,15.70
2019-05-26T21:59:57.031Z,15.80
2019-05-26T22:02:25.497Z,15.80
2019-05-26T22:04:53.896Z,15.80
2019-05-26T22:07:22.300Z,15.80
2019-05-26T22:09:50.726Z,15.80
2019-05-26T22:12:19.193Z,15.80
2019-05-26T22:14:47.661Z,15.90
2019-05-26T22:17:16.163Z,15.90
2019-05-26T22:19:44.660Z,15.90
2019-05-26T22:22:13.068Z,15.80
2019-05-26T22:24:41.494Z,15.80
2019-05-26T22:27:09.899Z,15.70
2019-05-26T22:29:38.381Z,15.70
2019-05-26T22:32:06.768Z,15.60
2019-05-26T22:34:35.156Z,15.60
2019-05-26T22:37:03.560Z,15.50
2019-05-26T22:39:31.971Z,15.50
2019-05-26T22:42:00.356Z,15.40
2019-05-26T22:44:28.770Z,15.40
2019-05-26T22:46:57.156Z,15.40
2019-05-26T22:49:25.598Z,15.40
2019-05-26T22:51:54.821Z,15.30
2019-05-26T22:54:23.231Z,15.30
2019-05-26T22:56:51.644Z,15.30
2019-05-26T22:59:20.027Z,15.30
2019-05-26T23:01:48.484Z,15.30
2019-05-26T23:04:16.875Z,15.30
2019-05-26T23:06:45.316Z,15.30
2019-05-26T23:09:13.676Z,15.30
2019-05-26T23:11:42.104Z,15.30
2019-05-26T23:14:10.482Z,15.30
2019-05-26T23:16:48.317Z,15.40
2019-05-26T23:19:19.710Z,15.30
2019-05-26T23:21:46.783Z,15.30
2019-05-26T23:24:15.188Z,15.30
2019-05-26T23:26:43.678Z,15.30
2019-05-26T23:29:12.095Z,15.30
2019-05-26T23:31:40.470Z,15.30
2019-05-26T23:34:08.879Z,15.20
2019-05-26T23:36:37.269Z,15.30
2019-05-26T23:39:06.749Z,15.20
2019-05-26T23:41:35.177Z,15.20
2019-05-26T23:44:03.518Z,15.20
2019-05-26T23:46:31.984Z,15.20
2019-05-26T23:49:00.419Z,15.30
2019-05-26T23:51:28.844Z,15.20
2019-05-26T23:53:57.282Z,15.20
2019-05-26T23:56:25.720Z,15.20
2019-05-26T23:58:54.380Z,15.20
